Time;durP1;ratioP1;P1;durP2;ratioP2;P2;SDS_P1;SDS_P2;PMS_P1;PMS_P2;Temp;Humidity;BMP_temperature;BMP_pressure;BME280_temperature;BME280_humidity;BME280_pressure;Samples;Min_cycle;Max_cycle;Signal;HPM_P1;HPM_P2
2023/01/28 00:02:08;;;;;;;13.67;12.27;;;2.60;99.90;;;;;;2615604;54;20433;-77
2023/01/28 00:07:56;;;;;;;17.30;12.87;;;2.60;99.90;;;;;;2614659;54;20138;-76
2023/01/28 00:13:44;;;;;;;20.40;17.00;;;2.60;99.90;;;;;;2615081;54;20390;-76
2023/01/28 00:19:32;;;;;;;21.57;17.80;;;2.50;99.90;;;;;;2614946;54;20281;-75
2023/01/28 00:25:20;;;;;;;20.93;16.47;;;2.60;99.90;;;;;;2615360;54;20170;-76
2023/01/28 00:28:31;;;;;;;21.30;16.80;;;2.50;99.90;;;;;;2614604;54;21234;-77
2023/01/28 00:30:56;;;;;;;18.83;15.97;;;2.50;99.90;;;;;;2614709;54;20154;-77
2023/01/28 00:36:44;;;;;;;19.17;15.20;;;2.50;99.90;;;;;;2614980;54;20155;-75
2023/01/28 00:42:32;;;;;;;17.37;15.50;;;2.50;99.90;;;;;;2614376;54;20122;-75
2023/01/28 00:48:20;;;;;;;17.80;15.03;;;2.30;99.90;;;;;;2615314;54;20496;-76
2023/01/28 00:54:09;;;;;;;19.53;15.33;;;2.40;99.90;;;;;;2615122;54;20174;-76
2023/01/28 00:59:57;;;;;;;18.90;15.20;;;2.40;99.90;;;;;;2615488;54;20382;-76
2023/01/28 01:05:45;;;;;;;18.83;16.83;;;2.30;99.90;;;;;;2616177;54;20123;-76
2023/01/28 01:11:33;;;;;;;19.70;16.40;;;2.30;99.90;;;;;;2615613;39;21241;-75
2023/01/28 01:17:21;;;;;;;25.20;19.90;;;2.20;99.90;;;;;;2615404;54;20944;-78
2023/01/28 01:23:09;;;;;;;18.83;14.87;;;2.20;99.90;;;;;;2615365;54;20234;-76
2023/01/28 01:33:03;;;;;;;16.87;13.90;;;2.20;99.90;;;;;;2615339;54;20982;-76
2023/01/28 01:38:54;;;;;;;14.73;13.07;;;2.20;99.90;;;;;;2615660;54;20537;-75
2023/01/28 01:45:05;;;;;;;15.40;13.37;;;2.10;99.90;;;;;;2615707;54;20398;-75
2023/01/28 01:50:58;;;;;;;23.00;16.77;;;2.10;99.90;;;;;;2615587;54;20386;-76
2023/01/28 01:56:48;;;;;;;23.23;18.47;;;2.10;99.90;;;;;;2615362;54;20378;-76
2023/01/28 02:02:42;;;;;;;22.00;17.90;;;2.10;99.90;;;;;;2616333;54;20459;-76
2023/01/28 02:05:45;;;;;;;17.50;15.33;;;2.10;99.90;;;;;;2614268;54;20411;-76
2023/01/28 02:14:18;;;;;;;19.93;15.90;;;2.10;99.90;;;;;;2615099;54;20358;-76
2023/01/28 02:42:46;;;;;;;10.40;9.60;;;1.90;99.90;;;;;;2613954;54;20366;-76
2023/01/28 02:48:33;;;;;;;11.30;10.30;;;1.90;99.90;;;;;;2614581;54;20408;-77
2023/01/28 03:00:48;;;;;;;12.10;10.80;;;1.90;99.90;;;;;;2614627;54;20392;-75
2023/01/28 03:06:45;;;;;;;16.37;12.87;;;1.80;99.90;;;;;;2614240;54;20422;-76
2023/01/28 03:37:18;;;;;;;13.53;12.20;;;1.80;99.90;;;;;;2615525;54;20433;-76
2023/01/28 03:43:06;;;;;;;15.77;13.37;;;1.80;99.90;;;;;;2615117;54;20154;-76
2023/01/28 03:48:53;;;;;;;14.77;13.37;;;1.80;99.90;;;;;;2614344;54;20166;-77
2023/01/28 03:54:41;;;;;;;15.20;13.70;;;1.80;99.90;;;;;;2615110;31;20597;-76
2023/01/28 04:00:29;;;;;;;13.90;12.50;;;1.80;99.90;;;;;;2615379;54;20127;-76
2023/01/28 04:06:17;;;;;;;15.10;13.60;;;1.80;99.90;;;;;;2615168;54;20681;-76
2023/01/28 04:12:05;;;;;;;18.67;15.70;;;1.80;99.90;;;;;;2615610;54;20126;-76
2023/01/28 04:17:55;;;;;;;15.90;14.40;;;1.80;99.90;;;;;;2615141;39;20806;-76
2023/01/28 04:23:44;;;;;;;15.40;13.60;;;1.80;99.90;;;;;;2615118;54;20378;-76
2023/01/28 04:29:31;;;;;;;14.87;13.50;;;1.80;99.90;;;;;;2615131;54;20259;-76
2023/01/28 04:35:19;;;;;;;16.60;14.90;;;1.70;99.90;;;;;;2615366;54;20933;-75
2023/01/28 04:41:07;;;;;;;15.40;13.87;;;1.70;99.90;;;;;;2614977;54;20138;-77
2023/01/28 04:46:55;;;;;;;15.80;14.37;;;1.70;99.90;;;;;;2614412;54;20395;-76
2023/01/28 04:52:42;;;;;;;15.03;13.63;;;1.70;99.90;;;;;;2615054;54;20150;-76
2023/01/28 04:58:30;;;;;;;13.67;12.30;;;1.70;99.90;;;;;;2615231;39;20594;-76
2023/01/28 05:04:18;;;;;;;16.27;14.57;;;1.70;99.90;;;;;;2614784;54;20125;-76
2023/01/28 05:10:06;;;;;;;14.80;13.27;;;1.70;99.90;;;;;;2615077;54;20479;-76
2023/01/28 05:15:55;;;;;;;13.00;11.90;;;1.60;99.90;;;;;;2615122;54;21011;-77
2023/01/28 05:21:43;;;;;;;14.33;13.07;;;1.70;99.90;;;;;;2614275;54;20390;-76
2023/01/28 05:27:31;;;;;;;13.53;12.40;;;1.60;99.90;;;;;;2614395;54;20171;-75
2023/01/28 05:36:40;;;;;;;15.23;13.77;;;1.60;99.90;;;;;;2615478;54;20386;-77
2023/01/28 05:42:28;;;;;;;17.50;15.80;;;1.50;99.90;;;;;;2615628;54;20135;-76
2023/01/28 05:48:16;;;;;;;13.80;12.30;;;1.50;99.90;;;;;;2615218;54;20134;-75
2023/01/28 05:54:07;;;;;;;16.13;14.53;;;1.50;99.90;;;;;;2615443;46;20406;-76
2023/01/28 05:59:55;;;;;;;16.27;14.77;;;1.50;99.90;;;;;;2615388;54;20378;-76
2023/01/28 06:05:43;;;;;;;16.40;14.70;;;1.50;99.90;;;;;;2614577;54;20375;-76
2023/01/28 06:11:31;;;;;;;16.03;14.37;;;1.40;99.90;;;;;;2616038;46;20165;-77
2023/01/28 06:17:18;;;;;;;16.23;14.53;;;1.40;99.90;;;;;;2615780;54;20166;-76
2023/01/28 06:23:06;;;;;;;15.13;13.87;;;1.30;99.90;;;;;;2616277;54;20671;-76
2023/01/28 06:28:54;;;;;;;14.87;13.37;;;1.30;99.90;;;;;;2615734;39;20533;-77
2023/01/28 06:34:51;;;;;;;15.17;13.77;;;1.30;99.90;;;;;;2614226;54;20139;-76
2023/01/28 06:40:38;;;;;;;16.33;14.93;;;1.30;99.90;;;;;;2614190;54;20412;-76
2023/01/28 06:46:25;;;;;;;14.60;13.30;;;1.20;99.90;;;;;;2613377;54;20122;-75
2023/01/28 06:52:12;;;;;;;15.20;13.90;;;1.20;99.90;;;;;;2613650;54;20122;-76
2023/01/28 06:58:00;;;;;;;15.47;14.07;;;1.10;99.90;;;;;;2613084;54;20260;-76
2023/01/28 07:03:47;;;;;;;16.47;14.73;;;1.00;99.90;;;;;;2613348;54;20122;-76
2023/01/28 07:06:31;;;;;;;15.50;14.00;;;1.00;99.90;;;;;;2612681;47;20427;-76
2023/01/28 07:08:57;;;;;;;16.13;14.50;;;1.00;99.90;;;;;;2614393;54;20305;-76
2023/01/28 07:14:45;;;;;;;17.37;15.60;;;1.00;99.90;;;;;;2614548;54;20762;-75
2023/01/28 07:20:32;;;;;;;15.27;13.77;;;1.00;99.90;;;;;;2615269;39;20533;-77
2023/01/28 07:26:20;;;;;;;16.37;14.70;;;1.00;99.90;;;;;;2614756;54;20202;-76
2023/01/28 07:32:08;;;;;;;15.10;13.80;;;1.00;99.90;;;;;;2614743;54;20130;-78
2023/01/28 07:37:58;;;;;;;15.83;14.43;;;1.00;99.90;;;;;;2614770;54;20141;-76
2023/01/28 07:43:45;;;;;;;16.30;14.70;;;1.00;99.90;;;;;;2616869;31;20801;-76
2023/01/28 07:49:33;;;;;;;15.47;14.03;;;1.00;99.90;;;;;;2615615;39;20681;-76
2023/01/28 07:55:21;;;;;;;14.80;13.50;;;1.00;99.90;;;;;;2614312;54;20254;-76
2023/01/28 08:01:09;;;;;;;14.63;13.40;;;1.00;99.90;;;;;;2614401;54;20656;-76
2023/01/28 08:04:12;;;;;;;15.70;14.27;;;1.10;99.90;;;;;;2614524;47;20411;-76
2023/01/28 08:06:38;;;;;;;14.70;13.20;;;1.10;99.90;;;;;;2614223;54;20158;-76
2023/01/28 08:12:25;;;;;;;15.37;13.70;;;1.20;99.90;;;;;;2614819;39;20666;-76
2023/01/28 08:18:15;;;;;;;14.53;13.27;;;1.30;99.00;;;;;;2614488;54;20166;-76
2023/01/28 08:24:03;;;;;;;14.23;13.03;;;1.40;98.30;;;;;;2614050;54;20447;-76
2023/01/28 08:29:50;;;;;;;14.90;13.40;;;1.40;96.80;;;;;;2614415;54;20669;-76
2023/01/28 08:35:39;;;;;;;15.97;14.57;;;1.60;96.00;;;;;;2615781;54;20146;-76
2023/01/28 08:41:29;;;;;;;17.20;15.50;;;1.50;90.50;;;;;;2615851;54;20391;-76
2023/01/28 08:47:17;;;;;;;17.83;16.13;;;1.50;90.80;;;;;;2616507;54;20371;-76
2023/01/28 08:53:09;;;;;;;17.60;15.93;;;1.60;92.50;;;;;;2615947;54;20145;-76
2023/01/28 08:58:57;;;;;;;17.93;16.33;;;1.50;84.70;;;;;;2615987;54;20488;-76
2023/01/28 09:04:45;;;;;;;16.67;15.27;;;1.60;89.20;;;;;;2615859;54;20676;-77
2023/01/28 09:10:33;;;;;;;18.13;16.63;;;1.60;91.10;;;;;;2615719;54;20139;-75
2023/01/28 09:16:21;;;;;;;22.53;20.17;;;1.60;93.90;;;;;;2617025;54;20397;-76
2023/01/28 09:22:09;;;;;;;20.10;18.00;;;1.60;94.40;;;;;;2615292;54;20734;-76
2023/01/28 09:27:57;;;;;;;19.63;17.83;;;1.60;93.90;;;;;;2616573;54;20684;-75
2023/01/28 09:37:13;;;;;;;19.30;17.40;;;1.70;90.50;;;;;;2615681;54;20434;-74
2023/01/28 09:43:39;;;;;;;19.27;17.47;;;1.80;90.30;;;;;;2616746;39;20815;-77
2023/01/28 10:09:18;;;;;;;20.07;18.13;;;1.80;76.40;;;;;;2616320;54;20471;-76
2023/01/28 10:27:59;;;;;;;22.13;19.80;;;1.90;75.60;;;;;;2614336;54;20389;-74
2023/01/28 10:37:13;;;;;;;20.03;18.10;;;2.10;72.10;;;;;;2614216;54;20522;-76
2023/01/28 10:43:01;;;;;;;20.37;18.23;;;2.20;71.80;;;;;;2614485;54;20381;-75
2023/01/28 10:55:28;;;;;;;19.40;17.70;;;2.20;64.40;;;;;;2613095;54;20957;-76
2023/01/28 11:04:43;;;;;;;22.63;20.33;;;2.20;67.00;;;;;;2614053;54;20399;-75
2023/01/28 11:10:33;;;;;;;19.90;18.20;;;2.10;70.20;;;;;;2613431;54;21023;-76
2023/01/28 11:16:21;;;;;;;18.50;16.67;;;2.10;70.40;;;;;;2613297;54;20409;-76
2023/01/28 11:28:45;;;;;;;20.40;17.87;;;1.90;65.60;;;;;;2615044;39;20760;-76
2023/01/28 11:34:34;;;;;;;20.13;17.33;;;1.90;65.70;;;;;;2613512;54;20425;-76
2023/01/28 11:37:15;;;;;;;19.83;18.03;;;1.90;63.80;;;;;;2613587;47;20511;-75
2023/01/28 11:39:41;;;;;;;20.50;18.60;;;2.00;65.80;;;;;;2612939;54;20942;-76
2023/01/28 12:05:37;;;;;;;19.90;17.73;;;2.10;64.50;;;;;;2612983;39;20884;-76
2023/01/28 12:41:48;;;;;;;21.07;18.83;;;2.90;52.10;;;;;;2613350;54;20413;-76
2023/01/28 12:47:39;;;;;;;22.57;20.17;;;2.80;48.80;;;;;;2615297;39;20808;-75
2023/01/28 12:53:34;;;;;;;19.40;17.60;;;4.40;43.40;;;;;;2614405;54;20403;-76
2023/01/28 12:59:39;;;;;;;22.20;20.13;;;5.10;33.10;;;;;;2615221;54;20434;-75
2023/01/28 13:05:35;;;;;;;20.03;18.33;;;5.60;21.90;;;;;;2614637;54;20417;-76
2023/01/28 13:11:24;;;;;;;35.47;18.60;;;10.40;14.60;;;;;;2614599;54;20414;-77
2023/01/28 13:23:50;;;;;;;19.73;18.33;;;10.70;6.00;;;;;;2615563;54;21091;-75
2023/01/28 13:29:38;;;;;;;22.17;20.47;;;11.70;4.20;;;;;;2616196;39;20486;-76
2023/01/28 13:35:36;;;;;;;21.63;19.93;;;11.10;4.20;;;;;;2614710;54;20672;-76
2023/01/28 13:41:23;;;;;;;20.67;19.10;;;9.90;2.60;;;;;;2615205;54;20399;-75
2023/01/28 14:14:11;;;;;;;24.83;22.63;;;4.40;19.00;;;;;;2615392;54;20394;-76
2023/01/28 14:20:03;;;;;;;25.23;23.10;;;3.80;22.30;;;;;;2616476;54;20414;-76
2023/01/28 14:25:54;;;;;;;24.27;21.77;;;5.00;20.80;;;;;;2616785;54;20420;-76
2023/01/28 14:31:42;;;;;;;23.57;21.57;;;6.70;13.30;;;;;;2616707;54;20405;-77
2023/01/28 14:41:48;;;;;;;25.30;22.90;;;7.60;9.30;;;;;;2616974;54;20386;-77
2023/01/28 14:48:04;;;;;;;23.20;21.20;;;7.20;11.40;;;;;;2616900;39;20465;-77
2023/01/28 15:00:22;;;;;;;24.13;21.87;;;5.80;10.70;;;;;;2615751;54;20382;-77
2023/01/28 15:06:16;;;;;;;22.73;20.73;;;7.00;12.40;;;;;;2616048;54;20530;-78
2023/01/28 15:12:06;;;;;;;24.53;22.30;;;6.80;10.60;;;;;;2615069;54;20504;-77
2023/01/28 15:24:13;;;;;;;23.27;21.00;;;5.50;14.00;;;;;;2615926;54;20367;-75
2023/01/28 15:30:01;;;;;;;24.77;22.67;;;3.20;23.30;;;;;;2617043;46;21052;-77
2023/01/28 15:35:52;;;;;;;24.63;22.30;;;2.80;28.90;;;;;;2616090;54;20399;-78
2023/01/28 15:45:02;;;;;;;26.27;23.50;;;2.00;44.30;;;;;;2616378;54;20374;-78
2023/01/28 15:57:35;;;;;;;25.80;22.97;;;1.50;57.40;;;;;;2614865;54;20985;-77
2023/01/28 16:03:23;;;;;;;28.07;24.87;;;1.20;62.80;;;;;;2615037;54;20378;-77
2023/01/28 16:15:51;;;;;;;33.93;27.33;;;0.90;80.70;;;;;;2614995;54;20408;-77
2023/01/28 16:21:44;;;;;;;34.13;27.70;;;0.70;90.50;;;;;;2614553;54;20375;-77
2023/01/28 16:27:31;;;;;;;34.07;28.00;;;0.50;94.60;;;;;;2614552;54;20371;-77
2023/01/28 16:33:20;;;;;;;36.77;27.97;;;0.30;99.90;;;;;;2614839;54;20401;-78
2023/01/28 16:42:31;;;;;;;30.00;25.50;;;-0.10;99.90;;;;;;2614516;54;20507;-77
2023/01/28 16:48:18;;;;;;;34.57;26.07;;;-0.20;99.90;;;;;;2615003;54;20366;-77
2023/01/28 16:54:06;;;;;;;36.50;28.57;;;-0.40;99.90;;;;;;2615560;31;20988;-76
2023/01/28 16:59:54;;;;;;;40.50;26.90;;;-0.50;99.90;;;;;;2615764;54;20382;-78
2023/01/28 17:05:41;;;;;;;38.50;27.70;;;-0.80;99.90;;;;;;2616179;54;20158;-77
2023/01/28 17:11:29;;;;;;;49.77;28.00;;;-0.80;99.90;;;;;;2616190;54;20668;-78
2023/01/28 17:17:18;;;;;;;42.97;25.27;;;-0.80;99.90;;;;;;2615944;54;20395;-77
2023/01/28 17:23:07;;;;;;;39.63;26.83;;;-1.00;99.90;;;;;;2615842;54;20362;-77
2023/01/28 17:28:56;;;;;;;37.53;25.53;;;-1.10;99.90;;;;;;2614966;39;20480;-76
2023/01/28 17:34:45;;;;;;;38.70;24.23;;;-1.10;99.90;;;;;;2616807;39;20792;-77
2023/01/28 17:50:56;;;;;;;35.23;22.03;;;-1.50;99.90;;;;;;2615292;39;20877;-77
2023/01/28 18:02:52;;;;;;;34.73;24.13;;;-1.80;99.90;;;;;;2614725;54;20394;-77
2023/01/28 18:08:40;;;;;;;38.23;25.33;;;-1.80;99.90;;;;;;2614266;54;20130;-77
2023/01/28 18:14:27;;;;;;;37.97;26.30;;;-1.70;99.90;;;;;;2614429;54;20428;-77
2023/01/28 18:20:14;;;;;;;41.27;25.70;;;-1.90;99.90;;;;;;2615599;31;20732;-77
2023/01/28 18:26:06;;;;;;;37.33;26.30;;;-1.90;99.90;;;;;;2616430;54;20130;-77
2023/01/28 18:31:54;;;;;;;44.03;29.80;;;-1.70;99.90;;;;;;2616210;54;20484;-77
2023/01/28 18:37:42;;;;;;;56.03;29.50;;;-1.80;99.90;;;;;;2616053;54;20404;-76
2023/01/28 18:43:31;;;;;;;43.37;27.33;;;-1.90;99.90;;;;;;2616731;39;20562;-76
2023/01/28 18:49:19;;;;;;;47.00;28.20;;;-2.20;99.90;;;;;;2616236;54;20402;-77
2023/01/28 18:55:07;;;;;;;44.03;27.13;;;-2.30;99.90;;;;;;2616964;39;20732;-77
2023/01/28 19:00:55;;;;;;;40.10;25.80;;;-2.40;99.90;;;;;;2616372;54;20406;-79
2023/01/28 19:06:44;;;;;;;43.97;28.07;;;-2.30;99.90;;;;;;2616066;54;20394;-77
2023/01/28 19:12:32;;;;;;;39.97;25.87;;;-2.50;99.90;;;;;;2615352;54;20376;-77
2023/01/28 19:18:19;;;;;;;40.07;26.00;;;-2.30;99.90;;;;;;2615799;54;20239;-77
2023/01/28 19:24:10;;;;;;;44.77;27.23;;;-2.30;99.90;;;;;;2615961;54;20130;-77
2023/01/28 19:29:58;;;;;;;51.70;29.83;;;-2.10;99.90;;;;;;2616176;54;20406;-77
2023/01/28 19:35:46;;;;;;;43.77;27.53;;;-2.20;99.90;;;;;;2614712;54;20134;-77
2023/01/28 19:41:34;;;;;;;49.23;28.17;;;-2.20;99.90;;;;;;2616318;39;20497;-77
2023/01/28 19:44:55;;;;;;;41.07;27.20;;;-2.30;99.90;;;;;;2614384;47;20966;-78
2023/01/28 19:47:21;;;;;;;44.97;27.57;;;-2.40;99.90;;;;;;2616328;54;20423;-76
2023/01/28 19:53:09;;;;;;;44.37;26.73;;;-2.70;99.90;;;;;;2616571;39;20544;-77
2023/01/28 19:58:57;;;;;;;53.33;29.03;;;-2.40;99.90;;;;;;2616597;54;20386;-76
2023/01/28 20:04:44;;;;;;;46.67;31.20;;;-2.10;99.90;;;;;;2615232;54;20138;-77
2023/01/28 20:10:32;;;;;;;48.47;31.10;;;-2.20;99.90;;;;;;2615989;54;20126;-77
2023/01/28 20:16:26;;;;;;;55.23;32.63;;;-2.10;99.90;;;;;;2616381;54;20891;-78
2023/01/28 20:22:13;;;;;;;46.53;30.17;;;-2.10;99.90;;;;;;2615786;54;20968;-78
2023/01/28 20:28:01;;;;;;;51.20;29.17;;;-2.30;99.90;;;;;;2615662;54;20126;-78
2023/01/28 20:33:48;;;;;;;56.20;29.80;;;-2.20;99.90;;;;;;2615960;54;20158;-77
2023/01/28 20:39:36;;;;;;;51.60;28.63;;;-2.30;99.90;;;;;;2616478;54;20147;-78
2023/01/28 20:49:24;;;;;;;40.77;28.50;;;-2.20;99.90;;;;;;2616047;54;20492;-77
2023/01/28 20:55:12;;;;;;;50.03;28.23;;;-2.00;99.90;;;;;;2615833;54;20395;-77
2023/01/28 21:01:01;;;;;;;59.13;35.73;;;-2.00;99.90;;;;;;2615842;54;20533;-78
2023/01/28 21:06:48;;;;;;;55.23;32.93;;;-2.00;99.90;;;;;;2616610;54;20406;-76
2023/01/28 21:12:36;;;;;;;59.33;35.77;;;-2.20;99.90;;;;;;2616934;54;20150;-76
2023/01/28 21:18:25;;;;;;;48.00;28.60;;;-2.00;99.90;;;;;;2616875;54;20616;-76
2023/01/28 21:24:12;;;;;;;51.03;34.17;;;-2.00;99.90;;;;;;2616652;54;20410;-78
2023/01/28 21:30:04;;;;;;;48.50;32.57;;;-2.10;99.90;;;;;;2616312;54;20661;-77
2023/01/28 21:35:51;;;;;;;53.07;31.07;;;-2.10;99.90;;;;;;2616948;54;20996;-77
2023/01/28 21:41:39;;;;;;;46.77;32.03;;;-2.10;99.90;;;;;;2616735;54;20147;-80
2023/01/28 21:47:40;;;;;;;61.90;33.10;;;-2.20;99.90;;;;;;2615320;46;20242;-78
2023/01/28 21:53:27;;;;;;;80.10;41.70;;;-2.10;99.90;;;;;;2614519;54;20118;-77
2023/01/28 22:05:21;;;;;;;49.27;33.67;;;-2.20;99.90;;;;;;2615128;54;20420;-78
2023/01/28 22:11:08;;;;;;;50.83;32.07;;;-2.40;99.90;;;;;;2615912;39;20545;-77
2023/01/28 22:16:56;;;;;;;50.93;32.20;;;-2.50;99.90;;;;;;2615393;54;20407;-78
2023/01/28 22:22:43;;;;;;;55.23;31.87;;;-2.60;99.90;;;;;;2612417;54;20139;-78
2023/01/28 22:28:31;;;;;;;55.83;32.20;;;-2.50;99.90;;;;;;2615669;54;20374;-78
2023/01/28 22:34:19;;;;;;;49.60;30.73;;;-2.60;99.90;;;;;;2615945;54;20134;-78
2023/01/28 22:40:08;;;;;;;54.10;32.73;;;-2.70;99.90;;;;;;2615062;54;20391;-78
2023/01/28 22:45:59;;;;;;;58.43;31.07;;;-2.70;99.90;;;;;;2615102;54;20500;-78
2023/01/28 22:51:47;;;;;;;54.97;32.87;;;-2.80;99.90;;;;;;2613889;39;20752;-78
2023/01/28 22:57:35;;;;;;;47.93;33.17;;;-3.10;99.90;;;;;;2613630;54;20150;-76
2023/01/28 23:03:23;;;;;;;55.30;33.30;;;-2.90;99.90;;;;;;2614722;39;20756;-75
2023/01/28 23:09:11;;;;;;;52.00;32.67;;;-3.10;99.90;;;;;;2615140;54;20178;-75
2023/01/28 23:27:34;;;;;;;52.50;33.13;;;-2.90;99.90;;;;;;2614588;54;21090;-75
2023/01/28 23:33:23;;;;;;;52.13;32.90;;;-3.10;99.90;;;;;;2614858;54;20367;-77
2023/01/28 23:39:11;;;;;;;60.43;34.40;;;-3.00;99.90;;;;;;2614865;39;20770;-76
2023/01/28 23:44:57;;;;;;;56.77;33.53;;;-3.00;99.90;;;;;;2614788;54;20371;-75
2023/01/28 23:50:45;;;;;;;56.27;34.00;;;-3.10;99.90;;;;;;2612498;54;20180;-75
2023/01/28 23:56:34;;;;;;;60.83;35.97;;;-2.80;99.90;;;;;;2613021;54;20151;-76
